Time;durP1;ratioP1;P1;durP2;ratioP2;P2;SDS_P1;SDS_P2;PMS_P1;PMS_P2;Temp;Humidity;BMP_temperature;BMP_pressure;BME280_temperature;BME280_humidity;BME280_pressure;Samples;Min_cycle;Max_cycle;Signal;HPM_P1;HPM_P2
2022/04/01 00:02:20;;;;;;;24.08;13.57;;;11.60;99.90;;;;;;5053607;28;20024;-81
2022/04/01 00:04:46;;;;;;;26.38;13.13;;;11.60;99.90;;;;;;5053497;28;20059;-81
2022/04/01 00:07:12;;;;;;;25.65;13.82;;;11.60;99.90;;;;;;5053430;28;20114;-81
2022/04/01 00:09:38;;;;;;;27.98;13.45;;;11.60;99.90;;;;;;5053446;28;20040;-81
2022/04/01 00:12:08;;;;;;;24.27;13.27;;;11.60;99.90;;;;;;5053261;28;20021;-81
2022/04/01 00:14:35;;;;;;;28.08;13.77;;;11.70;99.90;;;;;;5052756;28;20107;-81
2022/04/01 00:17:01;;;;;;;30.90;13.50;;;11.70;99.90;;;;;;5052747;28;20028;-81
2022/04/01 00:19:27;;;;;;;25.00;13.45;;;11.70;99.90;;;;;;5053280;28;20029;-81
2022/04/01 00:21:54;;;;;;;19.95;12.32;;;11.70;99.90;;;;;;5035051;28;20017;-81
2022/04/01 00:24:21;;;;;;;20.80;13.52;;;11.70;99.90;;;;;;5052875;28;20028;-81
2022/04/01 00:26:47;;;;;;;32.13;14.63;;;11.70;99.90;;;;;;5035317;28;20104;-80
2022/04/01 00:29:16;;;;;;;27.33;13.50;;;11.70;99.90;;;;;;5052950;28;20473;-81
2022/04/01 00:31:48;;;;;;;28.65;14.60;;;11.70;99.90;;;;;;5052961;28;20029;-82
2022/04/01 00:34:17;;;;;;;20.23;12.60;;;11.70;99.90;;;;;;5052758;28;20108;-81
2022/04/01 00:36:48;;;;;;;22.33;13.20;;;11.70;99.90;;;;;;5053010;28;20032;-81
2022/04/01 00:39:15;;;;;;;27.42;12.82;;;11.70;99.90;;;;;;5052984;28;20033;-81
2022/04/01 00:41:45;;;;;;;22.17;12.90;;;11.70;99.90;;;;;;5053068;28;20080;-81
2022/04/01 00:44:23;;;;;;;27.10;13.93;;;11.70;99.90;;;;;;5052837;28;20043;-81
2022/04/01 00:46:52;;;;;;;25.20;14.80;;;11.70;99.90;;;;;;5052758;28;20028;-81
2022/04/01 00:49:19;;;;;;;26.33;13.05;;;11.70;99.90;;;;;;5052612;28;20048;-81
2022/04/01 00:51:46;;;;;;;26.30;13.75;;;11.60;99.90;;;;;;5052851;28;20036;-81
2022/04/01 00:54:12;;;;;;;27.65;13.65;;;11.60;99.90;;;;;;5052496;28;20104;-81
2022/04/01 00:56:39;;;;;;;26.02;14.63;;;11.60;99.90;;;;;;5052802;28;20455;-81
2022/04/01 00:59:07;;;;;;;22.92;13.25;;;11.50;99.90;;;;;;5052573;28;20020;-81
2022/04/01 01:01:34;;;;;;;24.73;13.35;;;11.60;99.90;;;;;;5052395;28;20040;-80
2022/04/01 01:04:05;;;;;;;26.98;14.27;;;11.50;99.90;;;;;;5052498;28;20045;-80
2022/04/01 01:06:33;;;;;;;26.13;14.13;;;11.60;99.90;;;;;;5052588;28;20550;-80
2022/04/01 01:08:59;;;;;;;26.45;14.20;;;11.60;99.90;;;;;;5034660;28;20040;-81
2022/04/01 01:11:26;;;;;;;30.27;15.65;;;11.60;99.90;;;;;;5052373;28;20025;-81
2022/04/01 01:13:53;;;;;;;29.33;15.70;;;11.50;99.90;;;;;;5052514;28;20028;-81
2022/04/01 01:16:19;;;;;;;31.08;15.93;;;11.50;99.90;;;;;;5034750;28;20036;-80
2022/04/01 01:18:57;;;;;;;31.40;15.75;;;11.50;99.90;;;;;;5052211;28;20025;-81
2022/04/01 01:21:23;;;;;;;30.23;13.75;;;11.50;99.90;;;;;;5052220;28;20033;-81
2022/04/01 01:23:49;;;;;;;28.65;14.98;;;11.50;99.90;;;;;;5052037;28;20017;-81
2022/04/01 01:26:15;;;;;;;31.23;15.90;;;11.50;99.90;;;;;;5052113;28;20071;-81
2022/04/01 01:28:41;;;;;;;28.95;15.15;;;11.50;99.90;;;;;;5051968;28;20454;-81
2022/04/01 01:31:07;;;;;;;29.77;16.25;;;11.50;99.90;;;;;;5051979;28;20022;-81
2022/04/01 01:33:33;;;;;;;31.20;16.13;;;11.50;99.90;;;;;;5051929;28;20088;-81
2022/04/01 01:35:58;;;;;;;27.10;15.68;;;11.40;99.90;;;;;;5052326;28;20480;-81
2022/04/01 01:38:24;;;;;;;27.60;15.23;;;11.40;99.90;;;;;;5051996;28;20120;-81
2022/04/01 01:40:50;;;;;;;30.85;15.80;;;11.40;99.90;;;;;;5051715;28;20380;-81
2022/04/01 01:43:16;;;;;;;30.33;16.10;;;11.40;99.90;;;;;;5051436;28;20472;-81
2022/04/01 01:45:41;;;;;;;31.95;16.38;;;11.40;99.90;;;;;;5034179;28;20545;-81
2022/04/01 01:48:07;;;;;;;28.55;16.02;;;11.40;99.90;;;;;;5055160;28;20048;-81
2022/04/01 01:56:01;;;;;;;31.80;15.85;;;11.40;99.90;;;;;;5055856;28;20087;-81
2022/04/01 01:58:27;;;;;;;37.15;16.98;;;11.30;99.90;;;;;;5055418;28;20036;-81
2022/04/01 02:00:53;;;;;;;31.30;16.77;;;11.30;99.90;;;;;;5037549;28;20388;-81
2022/04/01 02:03:19;;;;;;;33.78;17.83;;;11.40;99.90;;;;;;5055338;28;20051;-81
2022/04/01 02:05:44;;;;;;;32.13;16.52;;;11.40;99.90;;;;;;5055607;28;20028;-81
2022/04/01 02:08:10;;;;;;;32.45;17.67;;;11.40;99.90;;;;;;5055607;28;20032;-81
2022/04/01 02:10:36;;;;;;;32.17;16.38;;;11.50;99.90;;;;;;5055583;28;20037;-81
2022/04/01 02:13:02;;;;;;;35.90;18.13;;;11.40;99.90;;;;;;5037271;28;20476;-81
2022/04/01 02:15:27;;;;;;;29.88;16.98;;;11.40;99.90;;;;;;5037620;28;20029;-81
2022/04/01 02:17:53;;;;;;;34.13;17.50;;;11.40;99.90;;;;;;5037488;28;20021;-81
2022/04/01 02:20:19;;;;;;;34.60;16.65;;;11.40;99.90;;;;;;5037331;28;20064;-81
2022/04/01 02:22:44;;;;;;;37.42;17.20;;;11.40;99.90;;;;;;5055205;28;20074;-80
2022/04/01 02:25:11;;;;;;;25.75;16.30;;;11.40;99.90;;;;;;5055135;28;20018;-80
2022/04/01 02:27:38;;;;;;;29.17;16.70;;;11.40;99.90;;;;;;5055215;28;20112;-81
2022/04/01 02:30:10;;;;;;;35.08;16.77;;;11.40;99.90;;;;;;5055153;28;20029;-81
2022/04/01 02:32:42;;;;;;;33.00;15.93;;;11.40;99.90;;;;;;5055089;28;20028;-81
2022/04/01 02:35:10;;;;;;;31.02;15.70;;;11.30;99.90;;;;;;5036864;28;20420;-81
2022/04/01 02:37:36;;;;;;;30.63;16.60;;;11.30;99.90;;;;;;5037110;28;20025;-81
2022/04/01 02:40:04;;;;;;;29.25;15.90;;;11.40;99.90;;;;;;5037053;28;20033;-81
2022/04/01 02:42:30;;;;;;;37.97;15.38;;;11.40;99.90;;;;;;5054835;28;20029;-81
2022/04/01 02:44:56;;;;;;;33.70;17.08;;;11.40;99.90;;;;;;5054726;28;20017;-81
2022/04/01 02:47:22;;;;;;;28.98;16.15;;;11.40;99.90;;;;;;5048207;28;20119;-81
2022/04/01 02:49:48;;;;;;;31.58;17.35;;;11.40;99.90;;;;;;5056605;28;20175;-81
2022/04/01 02:52:13;;;;;;;35.13;19.10;;;11.40;99.90;;;;;;5074752;28;20112;-81
2022/04/01 02:54:39;;;;;;;39.10;19.52;;;11.30;99.90;;;;;;5074710;28;20121;-81
2022/04/01 02:57:05;;;;;;;37.63;19.95;;;11.30;99.90;;;;;;5074198;28;20388;-81
2022/04/01 02:59:31;;;;;;;37.60;20.48;;;11.30;99.90;;;;;;5074561;28;20395;-81
2022/04/01 03:01:57;;;;;;;36.97;19.65;;;11.30;99.90;;;;;;5060210;28;20024;-81
2022/04/01 03:04:22;;;;;;;37.33;19.55;;;11.30;99.90;;;;;;5036465;28;20028;-81
2022/04/01 03:06:49;;;;;;;35.90;19.92;;;11.30;99.90;;;;;;5054450;28;20112;-81
2022/04/01 03:09:15;;;;;;;39.08;20.02;;;11.40;99.90;;;;;;5054315;28;20476;-81
2022/04/01 03:11:42;;;;;;;37.58;20.67;;;11.40;99.90;;;;;;5054340;28;20032;-81
2022/04/01 03:14:10;;;;;;;35.88;19.00;;;11.40;99.90;;;;;;5036186;28;20013;-81
2022/04/01 03:16:39;;;;;;;40.17;20.83;;;11.40;99.90;;;;;;5054248;28;20025;-81
2022/04/01 03:19:10;;;;;;;31.27;17.98;;;11.40;99.90;;;;;;5054208;28;20400;-81
2022/04/01 03:21:38;;;;;;;37.33;19.17;;;11.40;99.90;;;;;;5036085;28;20024;-80
2022/04/01 03:24:04;;;;;;;38.45;17.52;;;11.40;99.90;;;;;;5036301;28;20070;-81
2022/04/01 03:26:29;;;;;;;32.08;18.13;;;11.30;99.90;;;;;;5054115;28;20020;-81
2022/04/01 03:28:55;;;;;;;36.60;18.52;;;11.30;99.90;;;;;;5054090;28;20029;-81
2022/04/01 03:31:21;;;;;;;37.38;19.88;;;11.30;99.90;;;;;;5053779;28;20028;-81
2022/04/01 03:33:47;;;;;;;43.67;19.95;;;11.40;99.90;;;;;;5053801;28;20075;-81
2022/04/01 03:36:13;;;;;;;37.50;19.42;;;11.40;99.90;;;;;;5053331;28;20025;-81
2022/04/01 03:38:40;;;;;;;30.10;17.15;;;11.30;99.90;;;;;;5035482;28;20445;-81
2022/04/01 03:41:08;;;;;;;35.03;19.80;;;11.30;99.90;;;;;;5053807;28;20032;-83
2022/04/01 03:43:35;;;;;;;32.60;18.15;;;11.30;99.90;;;;;;5035920;28;20032;-82
2022/04/01 03:46:06;;;;;;;39.00;19.05;;;11.30;99.90;;;;;;5053429;28;20025;-82
2022/04/01 03:48:48;;;;;;;34.60;18.63;;;11.30;99.90;;;;;;5035300;28;20049;-82
2022/04/01 03:51:20;;;;;;;37.65;18.70;;;11.30;99.90;;;;;;5053483;28;20520;-81
2022/04/01 03:53:57;;;;;;;34.80;18.52;;;11.30;99.90;;;;;;5035550;28;20576;-81
2022/04/01 03:56:34;;;;;;;31.17;16.95;;;11.30;99.90;;;;;;5053434;28;20480;-81
2022/04/01 03:59:05;;;;;;;28.33;16.25;;;11.30;99.90;;;;;;5035549;28;20075;-80
2022/04/01 04:01:32;;;;;;;29.20;15.88;;;11.20;99.90;;;;;;5053412;28;20029;-80
2022/04/01 04:03:58;;;;;;;30.88;14.80;;;11.20;99.90;;;;;;5035191;28;20534;-80
2022/04/01 04:06:25;;;;;;;30.67;16.77;;;11.20;99.90;;;;;;5053281;28;20075;-80
2022/04/01 04:08:57;;;;;;;27.77;15.45;;;11.20;99.90;;;;;;5034558;28;20056;-80
2022/04/01 04:11:28;;;;;;;28.73;16.27;;;11.20;99.90;;;;;;5053255;28;20017;-80
2022/04/01 04:13:55;;;;;;;35.37;16.43;;;11.20;99.90;;;;;;5053168;28;20569;-80
2022/04/01 04:16:30;;;;;;;33.08;15.30;;;11.20;99.90;;;;;;5053058;28;20021;-80
2022/04/01 04:19:28;;;;;;;28.23;14.50;;;11.20;99.90;;;;;;5035250;28;20396;-80
2022/04/01 04:22:20;;;;;;;29.80;16.13;;;11.20;99.90;;;;;;5049074;28;20036;-80
2022/04/01 04:24:54;;;;;;;24.38;15.00;;;11.10;99.90;;;;;;5052471;28;20043;-81
2022/04/01 04:27:28;;;;;;;26.58;15.00;;;11.10;99.90;;;;;;5053026;28;20098;-80
2022/04/01 04:30:05;;;;;;;30.98;15.07;;;11.10;99.90;;;;;;5035032;28;20124;-80
2022/04/01 04:32:37;;;;;;;28.77;14.65;;;11.10;99.90;;;;;;5052894;28;20029;-75
2022/04/01 04:35:06;;;;;;;27.20;16.05;;;11.10;99.90;;;;;;5052610;28;20025;-75
2022/04/01 04:37:35;;;;;;;27.33;15.55;;;11.10;99.90;;;;;;5052789;28;20560;-75
2022/04/01 04:40:03;;;;;;;29.50;16.75;;;11.10;99.90;;;;;;5051878;28;20025;-75
2022/04/01 04:42:32;;;;;;;32.78;16.15;;;11.10;99.90;;;;;;5034002;28;20029;-75
2022/04/01 04:44:59;;;;;;;32.15;16.00;;;11.10;99.90;;;;;;5051658;28;20070;-75
2022/04/01 04:47:32;;;;;;;30.55;16.45;;;11.10;99.90;;;;;;5051544;28;20017;-75
2022/04/01 04:49:58;;;;;;;32.97;16.13;;;11.10;99.90;;;;;;5028389;28;20049;-75
2022/04/01 04:52:32;;;;;;;31.80;16.75;;;11.10;99.90;;;;;;5033507;28;20029;-75
2022/04/01 04:54:59;;;;;;;30.80;15.55;;;11.00;99.90;;;;;;5051707;28;20054;-75
2022/04/01 04:57:28;;;;;;;28.60;16.80;;;11.10;99.90;;;;;;5034218;28;20047;-75
2022/04/01 04:59:58;;;;;;;27.25;15.63;;;11.10;99.90;;;;;;5051506;28;20035;-75
2022/04/01 05:02:49;;;;;;;28.88;15.48;;;11.00;99.90;;;;;;5033933;28;20021;-75
2022/04/01 05:05:24;;;;;;;24.67;15.43;;;11.00;99.90;;;;;;5033778;28;20040;-74
2022/04/01 05:08:26;;;;;;;25.63;14.73;;;11.00;99.90;;;;;;5051495;28;20029;-74
2022/04/01 05:10:55;;;;;;;30.05;16.23;;;11.00;99.90;;;;;;5048211;28;20662;-74
2022/04/01 05:13:42;;;;;;;28.98;14.98;;;11.00;99.90;;;;;;5033622;28;20379;-75
2022/04/01 05:16:17;;;;;;;29.23;16.60;;;11.00;99.90;;;;;;5034316;28;20021;-75
2022/04/01 05:18:53;;;;;;;32.25;16.50;;;11.00;99.90;;;;;;5034341;28;20123;-75
2022/04/01 05:21:22;;;;;;;31.88;16.48;;;11.10;99.90;;;;;;5055488;28;20026;-74
2022/04/01 05:24:02;;;;;;;29.02;16.27;;;11.10;99.90;;;;;;5038169;28;20052;-74
2022/04/01 05:26:40;;;;;;;30.58;15.70;;;11.10;99.90;;;;;;5038246;28;20071;-74
2022/04/01 05:29:25;;;;;;;24.98;16.35;;;11.20;99.90;;;;;;5056155;28;20025;-75
2022/04/01 05:32:09;;;;;;;31.40;16.42;;;11.20;99.90;;;;;;5055990;28;20029;-74
2022/04/01 05:34:46;;;;;;;30.80;16.38;;;11.10;99.90;;;;;;5056064;28;20514;-75
2022/04/01 05:37:14;;;;;;;32.83;16.40;;;11.10;99.90;;;;;;5054830;28;20017;-74
2022/04/01 05:39:47;;;;;;;28.63;15.35;;;11.10;99.90;;;;;;5054593;28;20032;-74
2022/04/01 05:42:13;;;;;;;28.75;15.40;;;11.10;99.90;;;;;;5036808;28;20017;-75
2022/04/01 05:44:42;;;;;;;30.08;16.30;;;11.10;99.90;;;;;;5055068;28;20071;-75
2022/04/01 05:47:08;;;;;;;28.25;15.15;;;11.10;99.90;;;;;;5037155;28;20021;-75
2022/04/01 05:49:40;;;;;;;28.45;15.27;;;11.10;99.90;;;;;;5054880;28;20041;-75
2022/04/01 05:52:08;;;;;;;;;;;11.10;99.90;;;;;;5055687;28;20017;-75
2022/04/01 05:54:34;;;;;;;27.80;14.95;;;11.10;99.90;;;;;;5037763;28;19950;-75
2022/04/01 05:57:02;;;;;;;27.77;15.32;;;11.10;99.90;;;;;;5055647;28;20029;-75
2022/04/01 05:59:28;;;;;;;31.20;15.10;;;11.10;99.90;;;;;;5037347;28;20033;-75
2022/04/01 06:02:22;;;;;;;28.75;13.93;;;11.20;99.90;;;;;;5055314;28;20024;-75
2022/04/01 06:05:22;;;;;;;24.73;14.65;;;11.20;99.90;;;;;;5055411;28;20064;-75
2022/04/01 06:07:53;;;;;;;25.27;14.63;;;11.20;99.90;;;;;;5036826;28;20033;-75
2022/04/01 06:10:48;;;;;;;24.73;15.13;;;11.20;99.90;;;;;;5055676;28;20036;-75
2022/04/01 06:13:17;;;;;;;27.88;15.07;;;11.30;99.90;;;;;;5055294;28;20028;-75
2022/04/01 06:16:01;;;;;;;26.20;15.32;;;11.20;99.90;;;;;;5055276;28;20399;-75
2022/04/01 06:18:47;;;;;;;30.98;14.70;;;11.20;99.90;;;;;;5055100;28;20033;-75
2022/04/01 06:21:25;;;;;;;22.83;14.20;;;11.30;99.90;;;;;;5055101;28;20388;-75
2022/04/01 06:24:00;;;;;;;26.90;15.60;;;11.30;99.90;;;;;;5037220;28;20147;-75
2022/04/01 06:26:28;;;;;;;25.92;14.25;;;11.30;99.90;;;;;;5055056;28;20045;-75
2022/04/01 06:29:13;;;;;;;26.98;13.38;;;11.30;99.90;;;;;;5037118;28;20029;-75
2022/04/01 06:31:44;;;;;;;23.20;13.77;;;11.30;99.90;;;;;;5054164;28;20056;-75
2022/04/01 06:34:10;;;;;;;26.05;13.75;;;11.30;99.90;;;;;;5037215;28;20036;-75
2022/04/01 06:36:40;;;;;;;24.40;14.13;;;11.30;99.90;;;;;;5054876;28;20025;-75
2022/04/01 06:39:08;;;;;;;27.58;14.57;;;11.30;99.90;;;;;;5036897;28;20051;-74
2022/04/01 06:41:47;;;;;;;27.23;14.38;;;11.30;99.90;;;;;;5054848;28;20363;-75
2022/04/01 06:44:13;;;;;;;25.05;13.15;;;11.40;99.90;;;;;;5054551;28;20024;-75
2022/04/01 06:46:39;;;;;;;25.80;14.35;;;11.40;99.90;;;;;;5036650;28;20400;-75
2022/04/01 06:49:08;;;;;;;27.83;14.20;;;11.50;99.90;;;;;;5053926;28;20175;-75
2022/04/01 06:51:38;;;;;;;28.75;15.23;;;11.50;99.90;;;;;;5035456;28;20150;-75
2022/04/01 06:54:05;;;;;;;25.40;13.05;;;11.50;99.90;;;;;;5035724;28;20128;-75
2022/04/01 06:56:31;;;;;;;28.73;15.52;;;11.50;99.90;;;;;;5036246;28;20673;-75
2022/04/01 06:58:56;;;;;;;24.10;13.80;;;11.50;99.90;;;;;;5066646;28;20862;-75
2022/04/01 07:01:22;;;;;;;35.97;17.42;;;11.50;99.90;;;;;;5046791;28;20031;-75
2022/04/01 07:03:48;;;;;;;31.08;16.90;;;11.50;99.90;;;;;;5036280;28;20021;-75
2022/04/01 07:06:14;;;;;;;43.20;22.05;;;11.50;99.90;;;;;;5054430;28;20025;-75
2022/04/01 07:08:40;;;;;;;41.30;22.95;;;11.50;99.90;;;;;;5054375;28;20028;-75
2022/04/01 07:11:06;;;;;;;42.92;21.73;;;11.50;99.90;;;;;;5054276;28;20100;-75
2022/04/01 07:13:32;;;;;;;45.55;21.40;;;11.50;99.90;;;;;;5054037;28;20485;-75
2022/04/01 07:15:58;;;;;;;38.80;21.00;;;11.60;99.90;;;;;;5036078;28;20029;-75
2022/04/01 07:18:24;;;;;;;37.65;22.08;;;11.60;99.90;;;;;;5054057;28;20032;-76
2022/04/01 07:20:54;;;;;;;43.25;20.83;;;11.60;99.90;;;;;;5053973;28;20021;-75
2022/04/01 07:23:20;;;;;;;41.00;21.45;;;11.60;99.90;;;;;;5053592;28;20100;-75
2022/04/01 07:25:45;;;;;;;39.45;22.63;;;11.60;99.90;;;;;;5053500;28;20124;-75
2022/04/01 07:28:11;;;;;;;39.03;22.33;;;11.60;99.90;;;;;;5053707;28;20501;-75
2022/04/01 07:30:37;;;;;;;37.58;21.60;;;11.60;99.90;;;;;;5035526;28;20108;-75
2022/04/01 07:33:03;;;;;;;42.70;20.15;;;11.60;99.90;;;;;;5053689;28;20100;-75
2022/04/01 07:35:30;;;;;;;41.15;22.38;;;11.60;99.90;;;;;;5053829;28;20017;-75
2022/04/01 07:37:56;;;;;;;49.00;21.70;;;11.60;99.90;;;;;;5053654;28;20036;-75
2022/04/01 07:40:24;;;;;;;38.03;19.70;;;11.60;99.90;;;;;;5053658;28;20387;-76
2022/04/01 07:42:50;;;;;;;41.72;22.20;;;11.50;99.90;;;;;;5068876;28;20031;-75
2022/04/01 07:45:17;;;;;;;45.95;21.85;;;11.60;99.90;;;;;;5035540;28;20100;-75
2022/04/01 07:47:45;;;;;;;48.30;23.25;;;11.60;99.90;;;;;;5053395;28;20033;-75
2022/04/01 07:50:12;;;;;;;43.05;22.25;;;11.70;99.90;;;;;;5053750;28;20476;-75
2022/04/01 07:52:40;;;;;;;45.97;22.92;;;11.60;99.90;;;;;;5035317;28;20480;-75
2022/04/01 07:55:07;;;;;;;43.67;23.52;;;11.70;99.90;;;;;;5053395;28;20021;-75
2022/04/01 07:57:33;;;;;;;39.58;22.55;;;11.70;99.90;;;;;;5035449;28;20091;-75
2022/04/01 07:59:59;;;;;;;50.13;23.38;;;11.80;99.90;;;;;;5052886;28;20067;-75
2022/04/01 08:02:25;;;;;;;44.70;23.52;;;11.80;99.90;;;;;;5035036;28;20033;-76
2022/04/01 08:04:51;;;;;;;40.13;22.23;;;11.80;99.90;;;;;;5053102;28;20021;-75
2022/04/01 08:07:17;;;;;;;42.45;22.98;;;11.80;99.90;;;;;;5035267;28;20036;-75
2022/04/01 08:09:43;;;;;;;48.55;23.65;;;11.80;99.90;;;;;;5035031;28;20021;-75
2022/04/01 08:12:10;;;;;;;44.40;23.00;;;11.80;99.90;;;;;;5065291;28;20044;-75
2022/04/01 08:14:37;;;;;;;43.63;22.60;;;11.80;99.90;;;;;;5065441;28;20020;-75
2022/04/01 08:17:04;;;;;;;42.92;23.08;;;11.70;99.90;;;;;;5049643;28;20033;-75
2022/04/01 08:19:30;;;;;;;46.35;23.15;;;11.70;99.90;;;;;;5050291;28;20029;-75
2022/04/01 08:21:57;;;;;;;42.25;22.77;;;11.60;99.90;;;;;;5049615;28;20476;-75
2022/04/01 08:24:24;;;;;;;41.95;23.42;;;11.70;99.90;;;;;;5031866;28;20094;-75
2022/04/01 08:26:51;;;;;;;47.95;24.73;;;11.70;99.90;;;;;;5050063;28;20033;-75
2022/04/01 08:29:17;;;;;;;44.80;24.50;;;11.70;99.90;;;;;;5049367;28;20025;-75
2022/04/01 08:31:45;;;;;;;46.03;23.58;;;11.70;99.90;;;;;;5049732;28;20036;-75
2022/04/01 08:34:11;;;;;;;41.30;23.38;;;11.80;99.90;;;;;;5049715;28;20069;-75
2022/04/01 08:36:37;;;;;;;36.03;21.17;;;11.80;99.90;;;;;;5030747;28;20152;-75
2022/04/01 08:39:04;;;;;;;39.03;20.33;;;11.80;99.90;;;;;;5030796;28;20029;-75
2022/04/01 08:41:29;;;;;;;45.15;21.98;;;11.90;99.90;;;;;;5049140;28;20088;-75
2022/04/01 08:43:55;;;;;;;39.53;21.50;;;11.90;99.90;;;;;;5048944;28;20480;-75
2022/04/01 08:46:22;;;;;;;40.58;21.73;;;11.90;99.90;;;;;;5031469;28;20468;-75
2022/04/01 08:48:49;;;;;;;41.30;21.48;;;11.90;99.90;;;;;;5031079;28;20053;-76
2022/04/01 08:51:15;;;;;;;36.65;22.05;;;11.90;99.90;;;;;;5048772;28;20372;-74
2022/04/01 08:53:44;;;;;;;35.63;21.27;;;11.90;99.90;;;;;;5048991;28;20021;-75
2022/04/01 08:56:11;;;;;;;39.08;20.75;;;11.90;99.90;;;;;;5054237;28;20020;-76
2022/04/01 08:58:37;;;;;;;45.22;22.13;;;11.90;99.90;;;;;;5056399;28;20047;-76
2022/04/01 09:01:05;;;;;;;40.88;23.23;;;11.80;99.90;;;;;;5056012;28;20492;-75
2022/04/01 09:03:32;;;;;;;41.00;22.17;;;11.80;99.90;;;;;;5055466;28;20028;-75
2022/04/01 09:06:04;;;;;;;47.17;22.52;;;11.70;99.90;;;;;;5040867;28;20021;-75
2022/04/01 09:08:35;;;;;;;38.00;20.83;;;11.70;99.90;;;;;;5043771;28;20657;-74
2022/04/01 09:11:15;;;;;;;35.75;20.77;;;11.60;99.90;;;;;;5065450;28;20025;-74
2022/04/01 09:13:43;;;;;;;35.78;19.65;;;11.50;99.90;;;;;;5058503;28;20020;-75
2022/04/01 09:16:36;;;;;;;40.65;22.17;;;11.50;99.90;;;;;;5058868;28;20088;-75
2022/04/01 09:19:08;;;;;;;47.05;24.60;;;11.50;99.90;;;;;;5041011;28;20369;-74
2022/04/01 09:21:42;;;;;;;44.35;23.25;;;11.50;99.90;;;;;;5058060;28;20021;-75
2022/04/01 09:24:09;;;;;;;35.65;21.80;;;11.50;99.90;;;;;;5020334;28;20034;-74
2022/04/01 09:26:37;;;;;;;42.30;23.63;;;11.60;99.90;;;;;;5037936;28;20166;-74
2022/04/01 09:29:09;;;;;;;44.00;22.55;;;11.50;99.90;;;;;;5036885;28;20490;-74
2022/04/01 09:31:39;;;;;;;41.63;22.52;;;11.50;99.90;;;;;;5048171;28;20032;-75
2022/04/01 09:34:09;;;;;;;40.80;21.92;;;11.50;99.90;;;;;;5058150;28;20036;-74
2022/04/01 09:36:37;;;;;;;40.50;21.70;;;11.50;99.90;;;;;;5040323;28;20017;-74
2022/04/01 09:39:15;;;;;;;43.83;22.00;;;11.40;99.90;;;;;;5058436;28;20025;-74
2022/04/01 09:41:53;;;;;;;37.45;23.02;;;11.30;99.90;;;;;;5040620;28;20056;-74
2022/04/01 09:44:35;;;;;;;42.58;23.42;;;11.30;99.90;;;;;;5040511;28;20473;-74
2022/04/01 09:47:06;;;;;;;48.72;25.70;;;11.20;99.90;;;;;;5040797;28;20063;-75
2022/04/01 09:49:45;;;;;;;48.03;24.08;;;11.20;99.90;;;;;;5040854;28;20400;-74
2022/04/01 09:52:18;;;;;;;46.83;25.35;;;11.20;99.90;;;;;;5058910;28;20106;-74
2022/04/01 09:54:52;;;;;;;50.45;25.83;;;11.20;99.90;;;;;;5040527;28;20075;-74
2022/04/01 09:57:21;;;;;;;50.97;26.25;;;11.20;99.90;;;;;;5040713;28;20033;-74
2022/04/01 09:59:49;;;;;;;53.10;25.88;;;11.20;99.90;;;;;;5040773;28;20045;-74
2022/04/01 10:02:14;;;;;;;49.47;26.83;;;11.20;99.90;;;;;;5058329;28;20021;-74
2022/04/01 10:04:41;;;;;;;42.80;24.85;;;11.30;99.90;;;;;;5058726;28;20025;-75
2022/04/01 10:07:07;;;;;;;48.45;26.08;;;11.30;99.90;;;;;;5055211;28;20036;-75
2022/04/01 10:09:34;;;;;;;49.33;25.77;;;11.30;99.90;;;;;;5055232;28;20456;-75
2022/04/01 10:12:05;;;;;;;52.20;26.13;;;11.40;99.90;;;;;;5037470;28;20113;-76
2022/04/01 10:14:32;;;;;;;45.35;25.17;;;11.40;99.90;;;;;;5037505;28;20063;-75
2022/04/01 10:17:01;;;;;;;50.40;25.02;;;11.40;99.90;;;;;;5037329;28;20040;-75
2022/04/01 10:19:32;;;;;;;45.40;24.02;;;11.40;99.90;;;;;;5055238;28;20047;-75
2022/04/01 10:21:58;;;;;;;42.22;24.75;;;11.50;99.90;;;;;;5037293;28;20464;-75
2022/04/01 10:24:27;;;;;;;46.72;23.25;;;11.50;99.90;;;;;;5054966;28;20031;-75
2022/04/01 10:27:07;;;;;;;45.05;24.95;;;11.50;99.90;;;;;;5055226;28;20032;-75
2022/04/01 10:29:34;;;;;;;49.00;24.85;;;11.50;99.90;;;;;;5055122;28;20107;-75
2022/04/01 10:32:29;;;;;;;50.45;25.85;;;11.50;99.90;;;;;;5036885;28;20488;-75
2022/04/01 10:34:58;;;;;;;45.10;25.05;;;11.50;99.90;;;;;;5055029;28;20021;-74
2022/04/01 10:37:25;;;;;;;47.85;25.55;;;11.50;99.90;;;;;;5036794;28;20036;-74
2022/04/01 10:39:54;;;;;;;45.88;25.73;;;11.50;99.90;;;;;;5036612;28;20120;-74
2022/04/01 10:42:30;;;;;;;49.45;27.00;;;11.60;99.90;;;;;;5036662;28;20033;-74
2022/04/01 10:44:58;;;;;;;50.97;27.17;;;11.60;99.90;;;;;;5054747;28;20041;-74
2022/04/01 10:53:45;;;;;;;49.25;28.35;;;11.80;99.90;;;;;;5054905;28;20040;-74
2022/04/01 10:56:23;;;;;;;52.40;27.40;;;11.90;99.90;;;;;;5054434;28;20055;-74
2022/04/01 10:59:09;;;;;;;52.33;27.77;;;11.90;99.90;;;;;;5036279;28;20036;-74
2022/04/01 11:01:42;;;;;;;46.38;25.95;;;12.00;99.90;;;;;;5054216;28;20025;-74
2022/04/01 11:04:17;;;;;;;50.17;27.35;;;12.00;99.90;;;;;;5036031;28;20419;-74
2022/04/01 11:06:52;;;;;;;49.42;26.23;;;12.10;99.90;;;;;;5036024;28;20124;-75
2022/04/01 11:09:35;;;;;;;45.60;26.75;;;12.20;99.90;;;;;;5036188;28;20036;-74
2022/04/01 11:12:16;;;;;;;52.53;26.60;;;12.20;99.90;;;;;;5038829;28;20178;-74
2022/04/01 11:14:57;;;;;;;46.83;25.58;;;12.30;99.90;;;;;;5053974;28;20021;-74
2022/04/01 11:17:35;;;;;;;41.22;24.75;;;12.30;99.90;;;;;;5036038;28;20043;-74
2022/04/01 11:20:01;;;;;;;38.13;22.30;;;12.40;99.90;;;;;;5036212;28;20424;-75
2022/04/01 11:23:01;;;;;;;33.08;19.27;;;12.50;99.90;;;;;;5035691;28;20075;-74
2022/04/01 11:25:33;;;;;;;29.63;16.13;;;12.60;99.90;;;;;;4984025;28;20037;-74
2022/04/01 11:28:16;;;;;;;34.45;18.52;;;12.60;99.90;;;;;;5053909;28;20022;-74
2022/04/01 11:30:43;;;;;;;34.53;19.73;;;12.70;99.90;;;;;;5035633;28;20397;-74
2022/04/01 11:33:11;;;;;;;29.38;17.38;;;12.60;99.90;;;;;;5053621;28;20423;-74
2022/04/01 11:35:46;;;;;;;28.42;17.88;;;12.60;99.90;;;;;;5053673;28;20083;-74
2022/04/01 11:38:18;;;;;;;31.42;18.98;;;12.60;99.90;;;;;;5035812;28;20029;-75
2022/04/01 11:40:45;;;;;;;34.38;20.40;;;12.60;99.90;;;;;;5035566;28;20032;-75
2022/04/01 11:43:16;;;;;;;35.40;20.55;;;12.70;99.90;;;;;;5053469;28;20105;-74
2022/04/01 11:45:51;;;;;;;33.25;19.75;;;12.70;99.90;;;;;;5053413;28;20025;-75
2022/04/01 11:48:18;;;;;;;28.00;16.42;;;12.70;99.90;;;;;;5035361;28;20033;-75
2022/04/01 11:50:46;;;;;;;27.50;16.30;;;12.70;99.90;;;;;;5035711;28;20036;-75
2022/04/01 11:53:22;;;;;;;25.10;16.05;;;12.60;99.90;;;;;;5053415;28;20028;-75
2022/04/01 11:55:49;;;;;;;28.95;16.30;;;12.60;99.90;;;;;;5035480;28;20029;-75
2022/04/01 11:58:15;;;;;;;25.75;15.00;;;12.70;99.90;;;;;;5053550;28;20033;-75
2022/04/01 12:00:41;;;;;;;22.85;13.85;;;12.70;99.90;;;;;;5035295;28;20033;-75
2022/04/01 12:03:09;;;;;;;18.40;13.05;;;12.70;99.90;;;;;;5035205;28;20024;-75
2022/04/01 12:05:35;;;;;;;19.35;11.65;;;12.60;99.90;;;;;;5035366;28;20025;-75
2022/04/01 12:10:54;;;;;;;16.42;9.93;;;12.50;99.90;;;;;;5053548;28;20415;-75
2022/04/01 12:13:22;;;;;;;15.10;10.38;;;12.50;99.90;;;;;;5035100;28;20116;-75
2022/04/01 12:15:50;;;;;;;13.48;9.25;;;12.50;99.90;;;;;;5035332;28;20111;-75
2022/04/01 12:18:21;;;;;;;14.65;9.10;;;12.50;99.90;;;;;;5068264;28;20029;-75
2022/04/01 12:20:48;;;;;;;12.67;9.30;;;12.40;99.90;;;;;;5034930;28;20033;-75
2022/04/01 12:23:16;;;;;;;15.32;9.80;;;12.40;99.90;;;;;;5052889;28;20035;-75
2022/04/01 12:25:43;;;;;;;10.88;8.45;;;12.40;99.90;;;;;;5052604;28;20021;-75
2022/04/01 12:28:11;;;;;;;12.20;8.63;;;12.40;99.90;;;;;;5052366;28;20105;-75
2022/04/01 12:30:44;;;;;;;11.77;9.45;;;12.50;99.90;;;;;;5051550;28;20025;-75
2022/04/01 12:33:16;;;;;;;17.30;9.40;;;12.50;99.90;;;;;;5051858;28;20021;-75
2022/04/01 12:36:00;;;;;;;16.15;8.98;;;12.60;99.90;;;;;;5046322;28;20051;-75
2022/04/01 12:38:32;;;;;;;13.98;7.65;;;12.70;99.90;;;;;;5031135;28;20021;-75
2022/04/01 12:41:02;;;;;;;;;;;12.80;99.90;;;;;;5033606;28;20025;-75
2022/04/01 12:43:38;;;;;;;12.00;7.90;;;12.80;99.90;;;;;;5033270;28;19905;-82
2022/04/01 12:46:37;;;;;;;10.10;7.82;;;13.00;99.90;;;;;;5052696;28;20032;-83
2022/04/01 12:49:14;;;;;;;13.73;7.90;;;13.00;99.90;;;;;;4987228;28;20046;-83
2022/04/01 12:51:49;;;;;;;12.10;8.30;;;13.10;99.90;;;;;;5013259;28;20026;-83
2022/04/01 12:54:37;;;;;;;10.43;7.28;;;13.10;99.90;;;;;;5013090;28;20026;-83
2022/04/01 12:57:11;;;;;;;12.40;7.85;;;13.10;99.90;;;;;;5013160;28;20084;-83
2022/04/01 12:59:42;;;;;;;13.93;9.18;;;13.10;99.90;;;;;;5014465;28;20061;-80